createdAt,value
2018-06-15T00:00:58.283Z,98168.98
2018-06-15T00:03:29.951Z,98171.45
2018-06-15T00:06:00.855Z,98167.32
2018-06-15T00:08:32.828Z,98169.14
2018-06-15T00:11:03.968Z,98171.07
2018-06-15T00:13:35.068Z,98166.30
2018-06-15T00:16:06.267Z,98168.75
2018-06-15T00:18:38.908Z,98172.23
2018-06-15T00:21:09.857Z,98174.48
2018-06-15T00:23:40.811Z,98171.48
2018-06-15T00:26:11.861Z,98170.48
2018-06-15T00:28:43.754Z,98172.09
2018-06-15T00:31:14.807Z,98169.12
2018-06-15T00:33:47.458Z,98171.89
2018-06-15T00:36:19.210Z,98175.38
2018-06-15T00:38:50.497Z,98174.24
2018-06-15T00:41:21.881Z,98176.21
2018-06-15T00:43:53.760Z,98170.45
2018-06-15T00:46:24.945Z,98173.92
2018-06-15T00:48:56.139Z,98174.73
2018-06-15T00:51:28.054Z,98171.59
2018-06-15T00:53:59.441Z,98179.02
2018-06-15T00:56:31.042Z,98178.64
2018-06-15T00:59:02.866Z,98182.92
2018-06-15T01:01:33.918Z,98176.31
2018-06-15T01:04:05.958Z,98171.51
2018-06-15T01:06:37.541Z,98178.84
2018-06-15T01:09:09.975Z,98177.38
2018-06-15T01:11:40.785Z,98172.23
2018-06-15T01:14:11.698Z,98177.69
2018-06-15T01:16:44.018Z,98177.27
2018-06-15T01:19:15.656Z,98172.18
2018-06-15T01:21:47.327Z,98175.78
2018-06-15T01:24:18.382Z,98177.85
2018-06-15T01:26:49.414Z,98177.78
2018-06-15T01:29:20.703Z,98183.02
2018-06-15T01:31:51.587Z,98177.80
2018-06-15T01:34:22.577Z,98176.46
2018-06-15T01:36:54.370Z,98176.94
2018-06-15T01:39:26.610Z,98176.27
2018-06-15T01:41:57.406Z,98173.28
2018-06-15T01:44:27.830Z,98170.30
2018-06-15T01:46:58.651Z,98170.63
2018-06-15T01:49:30.111Z,98163.98
2018-06-15T01:52:01.109Z,98156.83
2018-06-15T01:54:32.554Z,98167.16
2018-06-15T01:57:05.591Z,98168.89
2018-06-15T01:59:36.907Z,98166.84
2018-06-15T02:02:08.123Z,98168.34
2018-06-15T02:04:38.889Z,98168.70
2018-06-15T02:07:09.950Z,98164.13
2018-06-15T02:09:41.928Z,98168.08
2018-06-15T02:12:13.526Z,98161.50
2018-06-15T02:14:45.065Z,98155.08
2018-06-15T02:17:16.361Z,98153.09
2018-06-15T02:19:47.449Z,98161.02
2018-06-15T02:22:18.588Z,98162.81
2018-06-15T02:24:49.733Z,98159.70
2018-06-15T02:27:20.177Z,98160.38
2018-06-15T02:29:51.628Z,98156.42
2018-06-15T02:32:23.123Z,98163.13
2018-06-15T02:34:54.317Z,98162.33
2018-06-15T02:37:25.297Z,98160.20
2018-06-15T02:39:56.430Z,98165.69
2018-06-15T02:42:28.272Z,98168.34
2018-06-15T02:45:00.187Z,98170.66
2018-06-15T02:47:31.529Z,98171.84
2018-06-15T02:50:03.949Z,98169.36
2018-06-15T02:52:35.825Z,98173.50
2018-06-15T02:55:07.065Z,98176.14
2018-06-15T02:57:38.393Z,98173.19
2018-06-15T03:00:09.465Z,98176.11
2018-06-15T03:02:40.651Z,98182.08
2018-06-15T03:05:12.354Z,98180.27
2018-06-15T03:07:43.484Z,98182.27
2018-06-15T03:10:14.700Z,98185.08
2018-06-15T03:12:46.704Z,98182.09
2018-06-15T03:15:18.732Z,98184.41
2018-06-15T03:17:49.868Z,98182.28
2018-06-15T03:20:20.592Z,98180.32
2018-06-15T03:22:52.009Z,98176.55
2018-06-15T03:25:24.039Z,98172.59
2018-06-15T03:27:55.340Z,98176.16
2018-06-15T03:30:27.837Z,98179.44
2018-06-15T03:32:59.854Z,98180.76
2018-06-15T03:35:31.376Z,98182.62
2018-06-15T03:38:02.594Z,98183.95
2018-06-15T03:40:33.784Z,98182.80
2018-06-15T03:43:05.067Z,98178.36
2018-06-15T03:45:36.345Z,98176.34
2018-06-15T03:48:07.556Z,98175.34
2018-06-15T03:50:39.624Z,98173.70
2018-06-15T03:53:10.881Z,98178.63
2018-06-15T03:55:42.953Z,98177.30
2018-06-15T03:58:14.179Z,98172.72
2018-06-15T04:00:45.991Z,98183.28
2018-06-15T04:03:17.223Z,98176.06
2018-06-15T04:05:48.921Z,98175.11
2018-06-15T04:08:20.283Z,98180.77
2018-06-15T04:10:51.611Z,98177.97
2018-06-15T04:13:23.702Z,98174.86
2018-06-15T04:15:55.595Z,98175.53
2018-06-15T04:18:26.758Z,98183.12
2018-06-15T04:20:58.087Z,98181.51
2018-06-15T04:23:29.598Z,98180.52
2018-06-15T04:26:01.051Z,98176.94
2018-06-15T04:28:32.098Z,98185.88
2018-06-15T04:31:03.845Z,98186.56
2018-06-15T04:33:36.035Z,98188.55
2018-06-15T04:36:07.262Z,98185.95
2018-06-15T04:38:38.322Z,98184.82
2018-06-15T04:41:09.488Z,98192.61
2018-06-15T04:43:40.821Z,98192.26
2018-06-15T04:46:12.472Z,98189.48
2018-06-15T04:48:44.711Z,98189.96
2018-06-15T04:51:15.942Z,98194.75
2018-06-15T04:53:47.159Z,98194.57
2018-06-15T04:56:18.469Z,98190.45
2018-06-15T04:58:50.752Z,98193.73
2018-06-15T05:01:22.313Z,98202.33
2018-06-15T05:03:53.265Z,98204.10
2018-06-15T05:06:24.277Z,98197.98
2018-06-15T05:08:56.226Z,98194.14
2018-06-15T05:11:27.799Z,98190.61
2018-06-15T05:14:00.253Z,98180.13
2018-06-15T05:16:31.755Z,98188.03
2018-06-15T05:19:03.374Z,98185.34
2018-06-15T05:21:34.757Z,98183.33
2018-06-15T05:24:06.253Z,98192.31
2018-06-15T05:26:37.589Z,98194.74
2018-06-15T05:29:09.027Z,98187.50
2018-06-15T05:31:40.732Z,98193.91
2018-06-15T05:34:11.781Z,98199.11
2018-06-15T05:36:42.673Z,98197.33
2018-06-15T05:39:14.333Z,98195.74
2018-06-15T05:41:45.443Z,98194.33
2018-06-15T05:44:17.245Z,98194.77
2018-06-15T05:46:48.790Z,98200.63
2018-06-15T05:49:20.765Z,98210.80
2018-06-15T05:51:51.756Z,98211.35
2018-06-15T05:54:22.606Z,98222.42
2018-06-15T05:56:53.804Z,98217.79
2018-06-15T05:59:24.764Z,98222.29
2018-06-15T06:01:56.104Z,98232.64
2018-06-15T06:04:26.930Z,98226.83
2018-06-15T06:06:59.583Z,98230.54
2018-06-15T06:09:30.862Z,98231.83
2018-06-15T06:12:01.978Z,98233.91
2018-06-15T06:14:33.209Z,98227.47
2018-06-15T06:17:04.437Z,98226.75
2018-06-15T06:19:36.012Z,98228.97
2018-06-15T06:22:07.993Z,98231.97
2018-06-15T06:24:40.881Z,98225.67
2018-06-15T06:27:12.861Z,98225.92
2018-06-15T06:29:45.522Z,98230.13
2018-06-15T06:32:17.058Z,98236.27
2018-06-15T06:34:48.790Z,98238.48
2018-06-15T06:37:27.374Z,98228.72
2018-06-15T06:39:59.916Z,98236.81
2018-06-15T06:42:30.635Z,98234.41
2018-06-15T06:45:02.783Z,98237.35
2018-06-15T06:47:35.065Z,98234.95
2018-06-15T06:50:06.864Z,98237.31
2018-06-15T06:52:39.090Z,98242.30
2018-06-15T06:55:10.681Z,98237.12
2018-06-15T06:57:42.081Z,98239.61
2018-06-15T07:00:14.422Z,98239.75
2018-06-15T07:02:45.591Z,98245.42
2018-06-15T07:05:16.476Z,98236.11
2018-06-15T07:07:48.530Z,98236.34
2018-06-15T07:10:20.796Z,98239.62
2018-06-15T07:12:51.861Z,98238.89
2018-06-15T07:15:22.170Z,98241.22
2018-06-15T07:17:54.759Z,98240.27
2018-06-15T07:20:25.621Z,98233.31
2018-06-15T07:22:57.369Z,98237.45
2018-06-15T07:25:29.771Z,98235.91
2018-06-15T07:28:01.861Z,98236.78
2018-06-15T07:30:33.678Z,98239.16
2018-06-15T07:33:06.522Z,98239.14
2018-06-15T07:35:38.814Z,98235.91
2018-06-15T07:38:10.055Z,98237.90
2018-06-15T07:40:41.385Z,98246.48
2018-06-15T07:43:12.629Z,98235.06
2018-06-15T07:45:44.130Z,98229.97
2018-06-15T07:48:15.864Z,98233.16
2018-06-15T07:50:47.457Z,98226.09
2018-06-15T07:53:20.143Z,98225.13
2018-06-15T07:55:51.740Z,98225.30
2018-06-15T07:58:24.302Z,98222.29
2018-06-15T08:00:55.631Z,98223.12
2018-06-15T08:03:27.690Z,98220.42
2018-06-15T08:05:59.094Z,98214.41
2018-06-15T08:08:30.346Z,98221.23
2018-06-15T08:11:01.751Z,98217.77
2018-06-15T08:13:33.802Z,98209.02
2018-06-15T08:16:04.405Z,98210.73
2018-06-15T08:18:35.527Z,98208.05
2018-06-15T08:21:07.344Z,98210.30
2018-06-15T08:23:39.400Z,98205.02
2018-06-15T08:26:10.448Z,98207.63
2018-06-15T08:28:43.227Z,98202.22
2018-06-15T08:31:15.078Z,98209.33
2018-06-15T08:33:46.973Z,98204.41
2018-06-15T08:36:18.263Z,98199.91
2018-06-15T08:38:49.224Z,98208.94
2018-06-15T08:41:20.629Z,98211.24
2018-06-15T08:43:52.835Z,98204.64
2018-06-15T08:46:24.923Z,98213.27
2018-06-15T08:48:56.219Z,98204.34
2018-06-15T08:51:28.601Z,98211.72
2018-06-15T08:54:00.936Z,98210.34
2018-06-15T08:56:33.441Z,98204.04
2018-06-15T08:59:05.389Z,98206.99
2018-06-15T09:01:36.529Z,98209.86
2018-06-15T09:04:07.945Z,98207.59
2018-06-15T09:06:39.310Z,98210.71
2018-06-15T09:09:10.637Z,98194.97
2018-06-15T09:11:42.256Z,98210.41
2018-06-15T09:14:13.579Z,98207.33
2018-06-15T09:16:45.912Z,98213.19
2018-06-15T09:19:17.711Z,98202.09
2018-06-15T09:21:49.020Z,98204.63
2018-06-15T09:24:20.868Z,98200.06
2018-06-15T09:26:51.845Z,98198.58
2018-06-15T09:29:24.342Z,98206.03
2018-06-15T09:31:57.226Z,98203.62
2018-06-15T09:34:28.721Z,98212.30
2018-06-15T09:37:01.307Z,98202.46
2018-06-15T09:39:33.580Z,98201.09
2018-06-15T09:42:04.894Z,98194.25
2018-06-15T09:44:36.281Z,98203.53
2018-06-15T09:47:07.829Z,98206.94
2018-06-15T09:49:39.928Z,98204.91
2018-06-15T09:52:11.074Z,98201.36
2018-06-15T09:54:42.575Z,98205.17
2018-06-15T09:57:14.078Z,98210.94
2018-06-15T09:59:45.821Z,98210.68
2018-06-15T10:02:17.003Z,98211.91
2018-06-15T10:04:49.047Z,98207.59
2018-06-15T10:07:22.069Z,98221.05
2018-06-15T10:09:54.403Z,98214.22
2018-06-15T10:12:27.427Z,98212.69
2018-06-15T10:14:59.492Z,98218.25
2018-06-15T10:17:32.778Z,98208.94
2018-06-15T10:20:04.639Z,98215.81
2018-06-15T10:22:38.555Z,98209.86
2018-06-15T10:25:11.265Z,98214.71
2018-06-15T10:27:43.433Z,98217.45
2018-06-15T10:30:15.519Z,98218.00
2018-06-15T10:32:48.879Z,98216.79
2018-06-15T10:35:21.059Z,98210.56
2018-06-15T10:37:53.136Z,98223.05
2018-06-15T10:40:25.210Z,98220.45
2018-06-15T10:42:56.750Z,98220.81
2018-06-15T10:45:28.096Z,98213.69
2018-06-15T10:48:00.672Z,98214.72
2018-06-15T10:50:32.422Z,98217.91
2018-06-15T10:53:04.337Z,98218.45
2018-06-15T10:55:35.704Z,98217.03
2018-06-15T10:58:07.065Z,98215.55
2018-06-15T11:00:38.353Z,98219.95
2018-06-15T11:03:10.919Z,98221.77
2018-06-15T11:05:42.432Z,98214.20
2018-06-15T11:08:13.900Z,98207.98
2018-06-15T11:10:45.959Z,98213.45
2018-06-15T11:13:17.317Z,98213.79
2018-06-15T11:15:48.548Z,98218.75
2018-06-15T11:18:20.628Z,98216.71
2018-06-15T11:20:52.800Z,98218.58
2018-06-15T11:23:23.849Z,98219.29
2018-06-15T11:25:54.956Z,98220.58
2018-06-15T11:28:27.906Z,98215.62
2018-06-15T11:31:00.718Z,98225.94
2018-06-15T11:33:33.848Z,98225.80
2018-06-15T11:36:05.271Z,98226.27
2018-06-15T11:38:37.814Z,98215.45
2018-06-15T11:41:11.895Z,98214.34
2018-06-15T11:43:44.229Z,98211.25
2018-06-15T11:46:15.804Z,98213.44
2018-06-15T11:48:48.863Z,98211.47
2018-06-15T11:51:20.287Z,98211.86
2018-06-15T11:53:51.553Z,98203.84
2018-06-15T11:56:22.941Z,98210.33
2018-06-15T11:58:55.123Z,98207.89
2018-06-15T12:01:27.057Z,98212.28
2018-06-15T12:03:58.323Z,98204.47
2018-06-15T12:06:30.466Z,98208.98
2018-06-15T12:09:01.947Z,98207.92
2018-06-15T12:11:38.015Z,98214.91
2018-06-15T12:14:09.680Z,98217.22
2018-06-15T12:16:42.312Z,98211.08
2018-06-15T12:19:15.930Z,98218.98
2018-06-15T12:21:49.876Z,98218.21
2018-06-15T12:24:22.973Z,98216.07
2018-06-15T12:26:56.801Z,98217.42
2018-06-15T12:29:28.433Z,98212.55
2018-06-15T12:31:59.904Z,98206.27
2018-06-15T12:34:32.024Z,98208.92
2018-06-15T12:37:05.871Z,98210.38
2018-06-15T12:39:38.202Z,98207.05
2018-06-15T12:42:09.473Z,98205.05
2018-06-15T12:44:40.719Z,98201.31
2018-06-15T12:47:11.939Z,98196.72
2018-06-15T12:49:42.567Z,98202.84
2018-06-15T12:52:14.515Z,98207.69
2018-06-15T12:54:46.358Z,98206.70
2018-06-15T12:57:17.895Z,98199.94
2018-06-15T12:59:49.156Z,98207.25
2018-06-15T13:02:20.486Z,98197.41
2018-06-15T13:04:51.871Z,98205.24
2018-06-15T13:07:23.479Z,98202.81
2018-06-15T13:09:55.151Z,98196.02
2018-06-15T13:12:27.663Z,98191.61
2018-06-15T13:14:58.728Z,98186.17
2018-06-15T13:17:31.004Z,98171.10
2018-06-15T13:20:01.529Z,98176.75
2018-06-15T13:22:32.783Z,98177.50
2018-06-15T13:25:03.991Z,98175.30
2018-06-15T13:27:35.328Z,98177.45
2018-06-15T13:30:06.480Z,98164.20
2018-06-15T13:32:38.317Z,98169.32
2018-06-15T13:35:10.324Z,98175.92
2018-06-15T13:37:41.769Z,98169.02
2018-06-15T13:40:13.182Z,98164.77
2018-06-15T13:42:44.434Z,98163.41
2018-06-15T13:45:17.242Z,98162.23
2018-06-15T13:47:49.186Z,98160.27
2018-06-15T13:50:21.882Z,98151.61
2018-06-15T13:52:53.471Z,98159.73
2018-06-15T13:55:25.742Z,98154.71
2018-06-15T13:57:57.215Z,98153.84
2018-06-15T14:00:29.451Z,98151.69
2018-06-15T14:03:00.878Z,98153.36
2018-06-15T14:05:33.157Z,98149.23
2018-06-15T14:08:04.539Z,98140.58
2018-06-15T14:10:35.627Z,98152.62
2018-06-15T14:13:07.106Z,98139.30
2018-06-15T14:15:38.831Z,98145.09
2018-06-15T14:18:12.557Z,98141.53
2018-06-15T14:20:44.795Z,98144.91
2018-06-15T14:23:16.119Z,98138.69
2018-06-15T14:25:47.919Z,98145.59
2018-06-15T14:28:19.300Z,98143.31
2018-06-15T14:30:49.678Z,98142.23
2018-06-15T14:33:20.692Z,98145.99
2018-06-15T14:35:52.566Z,98148.48
2018-06-15T14:38:24.387Z,98149.59
2018-06-15T14:40:55.563Z,98148.22
2018-06-15T14:43:27.074Z,98144.59
2018-06-15T14:45:59.769Z,98152.50
2018-06-15T14:48:31.593Z,98146.17
2018-06-15T14:51:03.941Z,98150.08
2018-06-15T14:53:35.331Z,98141.81
2018-06-15T14:56:06.634Z,98139.16
2018-06-15T14:58:38.161Z,98142.98
2018-06-15T15:01:10.362Z,98142.84
2018-06-15T15:03:42.818Z,98142.91
2018-06-15T15:06:14.228Z,98142.88
2018-06-15T15:08:47.926Z,98144.50
2018-06-15T15:11:20.197Z,98145.71
2018-06-15T15:13:51.893Z,98141.53
2018-06-15T15:16:24.529Z,98142.69
2018-06-15T15:19:01.055Z,98141.72
2018-06-15T15:21:33.169Z,98145.47
2018-06-15T15:24:08.576Z,98147.30
2018-06-15T15:26:39.750Z,98147.06
2018-06-15T15:29:11.924Z,98143.16
2018-06-15T15:31:44.520Z,98141.87
2018-06-15T15:34:15.530Z,98144.98
2018-06-15T15:36:46.688Z,98141.02
2018-06-15T15:39:18.093Z,98141.52
2018-06-15T15:41:49.448Z,98140.20
2018-06-15T15:44:20.785Z,98147.28
2018-06-15T15:46:52.273Z,98137.51
2018-06-15T15:49:24.134Z,98144.79
2018-06-15T15:51:56.239Z,98137.81
2018-06-15T15:54:27.544Z,98138.90
2018-06-15T15:57:00.480Z,98139.86
2018-06-15T15:59:32.179Z,98145.16
2018-06-15T16:02:04.052Z,98145.02
2018-06-15T16:04:35.728Z,98142.75
2018-06-15T16:07:08.146Z,98147.73
2018-06-15T16:09:40.002Z,98144.44
2018-06-15T16:12:12.506Z,98147.30
2018-06-15T16:14:44.514Z,98152.97
2018-06-15T16:17:16.000Z,98148.55
2018-06-15T16:19:46.800Z,98147.91
2018-06-15T16:22:18.010Z,98149.58
2018-06-15T16:24:49.306Z,98152.84
2018-06-15T16:27:21.305Z,98149.78
2018-06-15T16:29:53.147Z,98149.06
2018-06-15T16:32:24.502Z,98153.05
2018-06-15T16:34:56.881Z,98147.17
2018-06-15T16:37:29.348Z,98153.56
2018-06-15T16:40:01.123Z,98162.39
2018-06-15T16:42:32.957Z,98164.20
2018-06-15T16:45:04.619Z,98161.03
2018-06-15T16:47:37.736Z,98164.22
2018-06-15T16:50:08.828Z,98160.08
2018-06-15T16:52:40.002Z,98166.47
2018-06-15T16:55:11.131Z,98162.28
2018-06-15T16:57:43.013Z,98164.96
2018-06-15T17:00:14.295Z,98163.70
2018-06-15T17:02:45.825Z,98160.34
2018-06-15T17:05:17.247Z,98161.33
2018-06-15T17:07:48.385Z,98158.13
2018-06-15T17:10:19.427Z,98161.55
2018-06-15T17:12:50.904Z,98158.78
2018-06-15T17:15:21.737Z,98161.44
2018-06-15T17:17:53.264Z,98167.02
2018-06-15T17:20:24.399Z,98173.48
2018-06-15T17:22:55.764Z,98178.52
2018-06-15T17:25:26.310Z,98182.33
2018-06-15T17:27:56.877Z,98182.65
2018-06-15T17:30:28.987Z,98180.52
2018-06-15T17:33:01.153Z,98186.61
2018-06-15T17:38:03.430Z,98184.45
2018-06-15T17:40:34.638Z,98188.86
2018-06-15T17:43:06.343Z,98189.98
2018-06-15T17:45:37.740Z,98194.63
2018-06-15T17:48:09.051Z,98193.55
2018-06-15T17:50:40.315Z,98202.16
2018-06-15T17:53:12.789Z,98201.09
2018-06-15T17:55:43.807Z,98202.36
2018-06-15T17:58:15.106Z,98206.89
2018-06-15T18:00:46.529Z,98200.03
2018-06-15T18:03:17.887Z,98212.39
2018-06-15T18:05:49.989Z,98210.33
2018-06-15T18:08:21.931Z,98213.83
2018-06-15T18:10:54.740Z,98214.23
2018-06-15T18:13:26.991Z,98216.41
2018-06-15T18:15:58.522Z,98219.01
2018-06-15T18:18:30.347Z,98227.52
2018-06-15T18:21:02.224Z,98224.77
2018-06-15T18:23:33.848Z,98224.61
2018-06-15T18:26:06.207Z,98225.74
2018-06-15T18:28:38.054Z,98232.49
2018-06-15T18:31:08.885Z,98231.45
2018-06-15T18:33:40.234Z,98234.28
2018-06-15T18:36:11.334Z,98231.78
2018-06-15T18:38:43.494Z,98239.68
2018-06-15T18:41:15.168Z,98239.11
2018-06-15T18:43:47.835Z,98239.87
2018-06-15T18:46:20.685Z,98238.38
2018-06-15T18:48:53.615Z,98242.16
2018-06-15T18:51:24.796Z,98241.28
2018-06-15T18:53:56.321Z,98242.43
2018-06-15T18:56:29.402Z,98245.80
2018-06-15T18:59:02.387Z,98250.38
2018-06-15T19:01:37.456Z,98245.70
2018-06-15T19:04:09.819Z,98255.28
2018-06-15T19:06:41.279Z,98259.34
2018-06-15T19:09:13.704Z,98268.16
2018-06-15T19:11:46.209Z,98268.16
2018-06-15T19:14:19.314Z,98278.24
2018-06-15T19:16:52.828Z,98272.80
2018-06-15T19:19:25.619Z,98280.00
2018-06-15T19:21:58.258Z,98277.45
2018-06-15T19:24:30.335Z,98282.33
2018-06-15T19:27:03.142Z,98281.56
2018-06-15T19:29:35.623Z,98280.92
2018-06-15T19:32:09.625Z,98290.33
2018-06-15T19:34:43.085Z,98293.06
2018-06-15T19:37:15.675Z,98293.52
2018-06-15T19:39:49.669Z,98293.72
2018-06-15T19:42:22.418Z,98294.98
2018-06-15T19:44:56.557Z,98299.38
2018-06-15T19:47:31.650Z,98300.47
2018-06-15T19:50:04.439Z,98299.20
2018-06-15T19:52:36.569Z,98302.97
2018-06-15T19:55:09.019Z,98303.66
2018-06-15T19:57:41.519Z,98311.86
2018-06-15T20:00:15.533Z,98314.09
2018-06-15T20:02:48.967Z,98311.23
2018-06-15T20:05:23.225Z,98316.80
2018-06-15T20:07:56.058Z,98312.33
2018-06-15T20:10:29.287Z,98311.65
2018-06-15T20:13:03.291Z,98313.95
2018-06-15T20:15:36.702Z,98317.75
2018-06-15T20:18:09.583Z,98321.23
2018-06-15T20:20:44.170Z,98327.18
2018-06-15T20:23:17.136Z,98326.69
2018-06-15T20:25:50.316Z,98327.41
2018-06-15T20:28:28.341Z,98329.45
2018-06-15T20:31:06.686Z,98326.19
2018-06-15T20:33:40.333Z,98329.02
2018-06-15T20:36:13.146Z,98331.41
2018-06-15T20:38:48.537Z,98330.78
2018-06-15T20:41:21.243Z,98328.47
2018-06-15T20:43:54.967Z,98337.44
2018-06-15T20:46:27.839Z,98343.13
2018-06-15T20:49:00.868Z,98328.77
2018-06-15T20:51:34.976Z,98339.76
2018-06-15T20:54:08.426Z,98336.14
2018-06-15T20:56:40.955Z,98339.98
2018-06-15T20:59:13.205Z,98341.02
2018-06-15T21:01:46.677Z,98340.06
2018-06-15T21:04:19.427Z,98347.23
2018-06-15T21:06:52.263Z,98345.27
2018-06-15T21:09:24.291Z,98344.80
2018-06-15T21:11:56.906Z,98347.48
2018-06-15T21:14:29.931Z,98345.84
2018-06-15T21:17:01.760Z,98357.77
2018-06-15T21:19:33.360Z,98356.45
2018-06-15T21:22:06.712Z,98360.11
2018-06-15T21:24:40.097Z,98364.09
2018-06-15T21:27:12.078Z,98360.44
2018-06-15T21:29:43.666Z,98368.69
2018-06-15T21:32:16.674Z,98363.41
2018-06-15T21:34:49.618Z,98368.69
2018-06-15T21:37:22.095Z,98371.02
2018-06-15T21:39:54.120Z,98375.16
2018-06-15T21:42:26.217Z,98374.46
2018-06-15T21:44:58.176Z,98369.80
2018-06-15T21:47:30.594Z,98368.82
2018-06-15T21:50:02.729Z,98377.23
2018-06-15T21:52:35.049Z,98374.28
2018-06-15T21:55:06.696Z,98380.89
2018-06-15T21:57:38.046Z,98381.03
2018-06-15T22:00:10.270Z,98377.73
2018-06-15T22:02:41.872Z,98376.23
2018-06-15T22:05:12.700Z,98377.06
2018-06-15T22:07:44.473Z,98382.34
2018-06-15T22:10:15.326Z,98382.02
2018-06-15T22:12:46.679Z,98382.50
2018-06-15T22:15:17.843Z,98388.75
2018-06-15T22:17:49.271Z,98391.39
2018-06-15T22:20:21.745Z,98387.42
2018-06-15T22:22:53.396Z,98381.17
2018-06-15T22:25:24.652Z,98383.15
2018-06-15T22:27:55.800Z,98375.22
2018-06-15T22:30:27.209Z,98381.83
2018-06-15T22:32:58.762Z,98384.12
2018-06-15T22:35:31.426Z,98381.47
2018-06-15T22:38:02.615Z,98389.04
2018-06-15T22:40:34.032Z,98385.72
2018-06-15T22:43:06.979Z,98396.45
2018-06-15T22:45:38.540Z,98397.28
2018-06-15T22:48:10.391Z,98401.55
2018-06-15T22:50:41.672Z,98399.53
2018-06-15T22:53:13.424Z,98399.98
2018-06-15T22:55:44.556Z,98394.52
2018-06-15T22:58:15.745Z,98402.28
2018-06-15T23:00:46.882Z,98401.44
2018-06-15T23:03:18.857Z,98398.11
2018-06-15T23:05:51.147Z,98390.00
2018-06-15T23:08:22.823Z,98397.09
2018-06-15T23:10:54.193Z,98393.48
2018-06-15T23:13:25.418Z,98396.42
2018-06-15T23:15:56.830Z,98393.41
2018-06-15T23:18:27.807Z,98391.73
2018-06-15T23:20:59.208Z,98398.34
2018-06-15T23:23:30.709Z,98394.20
2018-06-15T23:26:01.997Z,98397.18
2018-06-15T23:28:33.185Z,98394.86
2018-06-15T23:31:03.910Z,98387.76
2018-06-15T23:33:35.978Z,98397.00
2018-06-15T23:36:07.311Z,98389.73
2018-06-15T23:38:38.349Z,98390.03
2018-06-15T23:41:09.813Z,98379.14
2018-06-15T23:43:41.410Z,98382.91
2018-06-15T23:46:12.534Z,98397.90
2018-06-15T23:48:44.386Z,98388.16
2018-06-15T23:51:16.130Z,98391.77
2018-06-15T23:53:48.589Z,98394.92
2018-06-15T23:56:18.993Z,98390.29
2018-06-15T23:58:50.035Z,98388.30
